KCNU/CNU METAR and TAF weather

Enter ICAO airport designator
Station Type Date Time Source
KCNU METAR 2020/01/21 14:52 UTC NOAA

KCNU 211452Z AUTO 14007KT 9SM OVC006 M08/M11 A3056 RMK AO2 SLP361 T10831106 53002


Station Type Date Time Source
KCNU Decoded METAR 2020/01/21 14:52 UTC NOAA

CHANUTE JOHNSON AIRPORT, KS, United States (KCNU) 37-40N 95-29W 297M
Jan 21, 2020 - 09:52 AM EST / 2020.01.21 1452 UTC
Wind: from the SE (140 degrees) at 8 MPH (7 KT):0
Visibility: 9 mile(s):0
Sky conditions: overcast
Temperature: 17.1 F (-8.3 C)
Windchill: 6 F (-14 C):1
Dew Point: 12.9 F (-10.6 C)
Relative Humidity: 83%
Pressure (altimeter): 30.56 in. Hg (1034 hPa)
Pressure tendency: 0.01 inches (0.2 hPa) higher than three hours ago
ob: KCNU 211452Z AUTO 14007KT 9SM OVC006 M08/M11 A3056 RMK AO2 SLP361 T10831106 53002
cycle: 15

Station Type Date Time Source
KCNU TAF 2020/01/21 14:15 UTC NOAA

TAF
AMD KCNU 211413Z 2114/2212 12006KT P6SM SKC
TEMPO 2114/2116 BKN005
FM220800 18013G21KT P6SM OVC070
FM221000 17014G22KT 4SM -SN BR OVC025
FM221100 17014G23KT 2SM -SN BR OVC010

Example: see airport list